createdAt,value
2023-05-10T00:00:26.203Z,11.90
2023-05-10T00:02:52.566Z,11.75
2023-05-10T00:05:18.969Z,11.93
2023-05-10T00:07:45.220Z,11.98
2023-05-10T00:10:11.610Z,12.01
2023-05-10T00:12:37.890Z,11.84
2023-05-10T00:15:04.316Z,11.74
2023-05-10T00:17:30.592Z,11.81
2023-05-10T00:19:56.840Z,11.86
2023-05-10T00:22:23.124Z,11.94
2023-05-10T00:24:51.458Z,11.81
2023-05-10T00:27:17.671Z,11.77
2023-05-10T00:29:43.905Z,11.70
2023-05-10T00:32:10.141Z,11.73
2023-05-10T00:34:36.388Z,11.71
2023-05-10T00:37:02.587Z,11.79
2023-05-10T00:39:28.802Z,11.73
2023-05-10T00:41:55.045Z,11.79
2023-05-10T00:44:21.251Z,11.75
2023-05-10T00:46:47.641Z,11.67
2023-05-10T00:49:13.850Z,11.53
2023-05-10T00:51:40.060Z,11.64
2023-05-10T00:54:06.297Z,11.64
2023-05-10T00:56:32.568Z,11.61
2023-05-10T00:58:58.794Z,11.56
2023-05-10T01:01:25.302Z,11.46
2023-05-10T01:03:51.564Z,11.51
2023-05-10T01:06:17.802Z,11.47
2023-05-10T01:08:44.066Z,11.35
2023-05-10T01:11:10.291Z,11.38
2023-05-10T01:13:37.235Z,11.45
2023-05-10T01:16:03.564Z,11.27
2023-05-10T01:18:30.521Z,11.43
2023-05-10T01:21:05.466Z,11.29
2023-05-10T01:23:46.434Z,11.23
2023-05-10T01:26:19.667Z,11.22
2023-05-10T01:29:04.783Z,11.11
2023-05-10T01:31:49.018Z,11.19
2023-05-10T01:34:20.462Z,10.95
2023-05-10T01:36:48.453Z,11.16
2023-05-10T01:39:17.478Z,10.95
2023-05-10T01:41:46.649Z,11.08
2023-05-10T01:44:15.818Z,11.00
2023-05-10T01:46:42.069Z,11.01
2023-05-10T01:49:16.976Z,11.05
2023-05-10T01:51:45.780Z,10.99
2023-05-10T01:54:11.984Z,10.75
2023-05-10T01:56:38.227Z,10.88
2023-05-10T01:59:06.376Z,10.96
2023-05-10T02:01:32.597Z,10.85
2023-05-10T02:03:58.859Z,10.86
2023-05-10T02:06:25.144Z,10.97
2023-05-10T02:08:51.346Z,10.83
2023-05-10T02:11:17.569Z,10.78
2023-05-10T02:13:43.804Z,10.86
2023-05-10T02:16:10.056Z,10.86
2023-05-10T02:18:36.285Z,10.85
2023-05-10T02:21:02.798Z,10.72
2023-05-10T02:23:29.499Z,10.78
2023-05-10T02:25:55.751Z,10.68
2023-05-10T02:28:22.199Z,10.71
2023-05-10T02:30:48.404Z,10.62
2023-05-10T02:33:14.642Z,10.65
2023-05-10T02:35:40.846Z,10.48
2023-05-10T02:38:07.066Z,10.45
2023-05-10T02:40:33.397Z,10.47
2023-05-10T02:42:59.642Z,10.40
2023-05-10T02:45:26.944Z,10.55
2023-05-10T02:47:53.203Z,10.43
2023-05-10T02:50:19.791Z,10.43
2023-05-10T02:52:51.019Z,10.39
2023-05-10T02:55:17.282Z,10.46
2023-05-10T02:57:49.000Z,10.46
2023-05-10T03:00:15.391Z,10.42
2023-05-10T03:02:41.804Z,10.50
2023-05-10T03:05:08.187Z,10.48
2023-05-10T03:07:34.441Z,10.43
2023-05-10T03:10:00.810Z,10.37
2023-05-10T03:12:30.438Z,10.11
2023-05-10T03:15:23.073Z,10.24
2023-05-10T03:17:57.041Z,10.32
2023-05-10T03:20:25.359Z,10.25
2023-05-10T03:22:52.832Z,10.23
2023-05-10T03:25:19.036Z,10.17
2023-05-10T03:27:45.238Z,10.19
2023-05-10T03:30:11.980Z,10.13
2023-05-10T03:32:38.220Z,10.19
2023-05-10T03:35:08.247Z,10.15
2023-05-10T03:37:34.446Z,10.16
2023-05-10T03:40:00.727Z,10.17
2023-05-10T03:42:26.938Z,10.04
2023-05-10T03:44:53.159Z,10.05
2023-05-10T03:47:19.369Z,10.16
2023-05-10T03:49:45.570Z,10.12
2023-05-10T03:52:11.856Z,10.11
2023-05-10T03:54:38.074Z,10.07
2023-05-10T03:57:04.456Z,10.16
2023-05-10T03:59:30.911Z,10.21
2023-05-10T04:01:57.195Z,10.17
2023-05-10T04:04:23.442Z,10.17
2023-05-10T04:06:49.652Z,10.14
2023-05-10T04:09:15.875Z,10.04
2023-05-10T04:11:42.080Z,10.13
2023-05-10T04:14:08.452Z,10.07
2023-05-10T04:16:34.808Z,10.24
2023-05-10T04:19:01.178Z,10.09
2023-05-10T04:21:27.398Z,10.18
2023-05-10T04:23:54.016Z,10.27
2023-05-10T04:26:20.350Z,10.28
2023-05-10T04:28:48.912Z,10.27
2023-05-10T04:31:22.721Z,10.36
2023-05-10T04:33:48.968Z,10.43
2023-05-10T04:36:15.209Z,10.53
2023-05-10T04:38:43.730Z,10.47
2023-05-10T04:41:10.546Z,10.41
2023-05-10T04:43:36.824Z,10.57
2023-05-10T04:46:03.331Z,10.62
2023-05-10T04:48:31.356Z,10.78
2023-05-10T04:50:57.843Z,10.91
2023-05-10T04:53:24.376Z,11.05
2023-05-10T04:55:57.951Z,11.27
2023-05-10T04:58:24.170Z,11.48
2023-05-10T05:00:50.391Z,11.79
2023-05-10T05:03:16.687Z,12.02
2023-05-10T05:05:43.002Z,11.95
2023-05-10T05:08:09.418Z,12.10
2023-05-10T05:10:35.626Z,12.15
2023-05-10T05:13:01.900Z,12.13
2023-05-10T05:15:28.177Z,12.12
2023-05-10T05:17:54.408Z,12.15
2023-05-10T05:20:20.683Z,12.50
2023-05-10T05:22:46.905Z,12.54
2023-05-10T05:25:13.414Z,12.85
2023-05-10T05:27:39.627Z,13.34
2023-05-10T05:30:06.184Z,13.28
2023-05-10T05:32:32.538Z,13.42
2023-05-10T05:34:58.759Z,13.75
2023-05-10T05:37:24.986Z,14.00
2023-05-10T05:39:51.208Z,13.88
2023-05-10T05:42:17.435Z,14.21
2023-05-10T05:44:43.658Z,13.96
2023-05-10T05:47:09.971Z,14.39
2023-05-10T05:49:36.195Z,14.46
2023-05-10T05:52:04.769Z,14.27
2023-05-10T05:54:31.062Z,14.25
2023-05-10T05:56:58.864Z,14.26
2023-05-10T05:59:26.631Z,14.08
2023-05-10T06:01:52.873Z,14.48
2023-05-10T06:04:19.402Z,14.68
2023-05-10T06:06:45.651Z,14.93
2023-05-10T06:09:11.841Z,15.38
2023-05-10T06:11:38.170Z,15.26
2023-05-10T06:14:04.712Z,15.28
2023-05-10T06:16:33.864Z,15.28
2023-05-10T06:19:00.097Z,14.93
2023-05-10T06:21:26.338Z,15.38
2023-05-10T06:23:53.836Z,15.25
2023-05-10T06:26:20.108Z,15.60
2023-05-10T06:28:46.323Z,15.68
2023-05-10T06:31:12.603Z,15.63
2023-05-10T06:33:38.837Z,16.46
2023-05-10T06:36:05.134Z,16.35
2023-05-10T06:38:31.334Z,16.20
2023-05-10T06:40:57.556Z,16.52
2023-05-10T06:43:23.746Z,17.26
2023-05-10T06:45:50.123Z,17.34
2023-05-10T06:48:16.426Z,17.01
2023-05-10T06:50:48.613Z,17.31
2023-05-10T06:53:19.004Z,17.02
2023-05-10T06:55:49.875Z,16.99
2023-05-10T06:58:17.191Z,17.04
2023-05-10T07:00:43.742Z,17.35
2023-05-10T07:03:16.142Z,17.39
2023-05-10T07:05:42.473Z,17.71
2023-05-10T07:08:08.742Z,17.83
2023-05-10T07:10:36.116Z,18.22
2023-05-10T07:13:03.453Z,17.99
2023-05-10T07:15:31.640Z,18.28
2023-05-10T07:17:58.089Z,18.20
2023-05-10T07:20:24.490Z,18.32
2023-05-10T07:22:50.756Z,18.69
2023-05-10T07:25:17.447Z,17.94
2023-05-10T07:27:51.308Z,18.14
2023-05-10T07:30:19.663Z,18.79
2023-05-10T07:32:45.980Z,18.56
2023-05-10T07:35:12.248Z,18.17
2023-05-10T07:37:38.780Z,18.42
2023-05-10T07:40:07.301Z,18.92
2023-05-10T07:42:36.007Z,19.07
2023-05-10T07:45:02.233Z,18.34
2023-05-10T07:47:28.594Z,18.78
2023-05-10T07:49:55.052Z,18.68
2023-05-10T07:52:22.673Z,19.57
2023-05-10T07:54:49.200Z,20.14
2023-05-10T07:57:15.449Z,20.02
2023-05-10T07:59:42.798Z,19.09
2023-05-10T08:02:09.145Z,19.02
2023-05-10T08:04:35.510Z,18.65
2023-05-10T08:07:01.818Z,19.14
2023-05-10T08:09:28.183Z,19.43
2023-05-10T08:11:54.401Z,19.45
2023-05-10T08:14:20.725Z,19.35
2023-05-10T08:16:47.179Z,19.41
2023-05-10T08:19:13.407Z,19.36
2023-05-10T08:21:47.696Z,19.64
2023-05-10T08:24:17.019Z,19.97
2023-05-10T08:26:44.826Z,19.67
2023-05-10T08:29:11.364Z,19.91
2023-05-10T08:31:37.640Z,19.79
2023-05-10T08:34:04.145Z,19.69
2023-05-10T08:36:34.015Z,19.72
2023-05-10T08:41:53.130Z,20.01
2023-05-10T08:44:19.395Z,20.66
2023-05-10T08:46:46.963Z,20.58
2023-05-10T08:49:14.308Z,20.78
2023-05-10T08:51:43.821Z,20.25
2023-05-10T08:54:10.164Z,21.01
2023-05-10T08:56:36.775Z,21.21
2023-05-10T08:59:03.013Z,21.40
2023-05-10T09:01:29.364Z,21.18
2023-05-10T09:03:55.729Z,21.29
2023-05-10T09:06:22.081Z,21.09
2023-05-10T09:08:48.311Z,22.10
2023-05-10T09:11:14.579Z,21.68
2023-05-10T09:13:41.252Z,21.25
2023-05-10T09:16:20.380Z,20.73
2023-05-10T09:18:48.374Z,21.16
2023-05-10T09:21:14.807Z,21.30
2023-05-10T09:23:43.988Z,21.66
2023-05-10T09:26:10.981Z,21.90
2023-05-10T09:28:56.372Z,21.75
2023-05-10T09:31:22.807Z,21.66
2023-05-10T09:33:55.064Z,22.07
2023-05-10T09:36:26.847Z,22.09
2023-05-10T09:38:57.779Z,22.51
2023-05-10T09:41:43.948Z,22.48
2023-05-10T09:44:19.637Z,22.10
2023-05-10T09:46:49.618Z,22.24
2023-05-10T09:49:15.907Z,22.19
2023-05-10T09:51:42.189Z,22.69
2023-05-10T09:54:18.246Z,23.02
2023-05-10T09:56:44.493Z,22.78
2023-05-10T09:59:11.486Z,22.88
2023-05-10T10:01:38.134Z,23.19
2023-05-10T10:04:08.268Z,22.83
2023-05-10T10:06:38.065Z,23.35
2023-05-10T10:09:04.597Z,22.93
2023-05-10T10:11:30.837Z,22.26
2023-05-10T10:13:57.068Z,22.73
2023-05-10T10:16:23.298Z,22.65
2023-05-10T10:18:49.617Z,23.38
2023-05-10T10:21:15.963Z,23.72
2023-05-10T10:23:42.199Z,23.79
2023-05-10T10:26:08.509Z,23.01
2023-05-10T10:28:34.680Z,22.76
2023-05-10T10:31:01.913Z,22.25
2023-05-10T10:33:40.021Z,22.72
2023-05-10T10:36:06.329Z,22.81
2023-05-10T10:38:47.873Z,22.49
2023-05-10T10:41:33.171Z,23.16
2023-05-10T10:44:18.323Z,23.14
2023-05-10T10:47:03.266Z,23.43
2023-05-10T10:49:31.534Z,23.60
2023-05-10T10:52:16.680Z,23.46
2023-05-10T10:54:47.851Z,23.05
2023-05-10T10:57:14.447Z,23.37
2023-05-10T10:59:43.754Z,23.79
2023-05-10T11:02:09.966Z,23.66
2023-05-10T11:04:42.639Z,23.36
2023-05-10T11:07:18.049Z,22.82
2023-05-10T11:09:44.263Z,22.54
2023-05-10T11:12:10.492Z,22.31
2023-05-10T11:14:36.720Z,22.57
2023-05-10T11:17:02.990Z,23.25
2023-05-10T11:19:29.206Z,23.10
2023-05-10T11:22:04.667Z,23.38
2023-05-10T11:24:30.879Z,23.87
2023-05-10T11:26:57.125Z,23.93
2023-05-10T11:29:23.334Z,23.78
2023-05-10T11:31:49.913Z,23.56
2023-05-10T11:34:28.681Z,23.42
2023-05-10T11:36:55.292Z,23.60
2023-05-10T11:39:21.782Z,24.11
2023-05-10T11:41:48.984Z,23.93
2023-05-10T11:44:15.192Z,23.85
2023-05-10T11:46:41.478Z,23.57
2023-05-10T11:49:07.736Z,23.96
2023-05-10T11:51:36.925Z,24.10
2023-05-10T11:54:06.137Z,24.16
2023-05-10T11:56:33.263Z,24.46
2023-05-10T11:58:59.474Z,24.16
2023-05-10T12:01:26.489Z,24.57
2023-05-10T12:03:53.310Z,24.94
2023-05-10T12:06:19.804Z,24.79
2023-05-10T12:08:49.124Z,24.44
2023-05-10T12:11:15.354Z,24.90
2023-05-10T12:13:42.037Z,24.97
2023-05-10T12:16:18.230Z,24.59
2023-05-10T12:18:44.728Z,24.12
2023-05-10T12:21:13.936Z,24.03
2023-05-10T12:23:40.276Z,23.93
2023-05-10T12:26:06.489Z,24.15
2023-05-10T12:28:32.998Z,23.84
2023-05-10T12:30:59.963Z,23.53
2023-05-10T12:33:26.179Z,23.57
2023-05-10T12:35:52.951Z,23.99
2023-05-10T12:38:28.711Z,24.03
2023-05-10T12:40:54.943Z,23.96
2023-05-10T12:43:21.235Z,23.96
2023-05-10T12:45:47.752Z,23.67
2023-05-10T12:48:14.108Z,23.42
2023-05-10T12:50:40.337Z,23.39
2023-05-10T12:53:06.544Z,22.96
2023-05-10T12:55:32.747Z,23.01
2023-05-10T12:57:59.202Z,22.83
2023-05-10T13:00:25.472Z,23.00
2023-05-10T13:02:51.748Z,23.46
2023-05-10T13:05:17.964Z,23.05
2023-05-10T13:07:44.500Z,22.38
2023-05-10T13:10:10.925Z,22.83
2023-05-10T13:12:37.211Z,22.97
2023-05-10T13:15:03.723Z,22.85
2023-05-10T13:17:30.693Z,22.68
2023-05-10T13:19:58.299Z,22.75
2023-05-10T13:22:36.374Z,22.76
2023-05-10T13:25:06.263Z,22.74
2023-05-10T13:27:32.548Z,22.85
2023-05-10T13:29:58.781Z,22.94
2023-05-10T13:32:25.041Z,23.40
2023-05-10T13:34:51.285Z,22.71
2023-05-10T13:37:17.506Z,22.83
2023-05-10T13:39:43.711Z,22.77
2023-05-10T13:42:10.121Z,22.38
2023-05-10T13:44:36.368Z,22.33
2023-05-10T13:47:02.584Z,22.17
2023-05-10T13:49:28.804Z,22.12
2023-05-10T13:51:55.035Z,22.18
2023-05-10T13:54:21.308Z,22.14
2023-05-10T13:56:47.528Z,22.11
2023-05-10T13:59:13.914Z,22.22
2023-05-10T14:01:40.208Z,22.25
2023-05-10T14:04:06.515Z,22.45
2023-05-10T14:06:32.766Z,22.37
2023-05-10T14:08:58.968Z,22.50
2023-05-10T14:11:25.192Z,22.32
2023-05-10T14:13:51.392Z,22.54
2023-05-10T14:16:17.673Z,22.38
2023-05-10T14:18:44.145Z,22.60
2023-05-10T14:21:10.416Z,22.81
2023-05-10T14:23:36.610Z,22.95
2023-05-10T14:26:02.832Z,22.54
2023-05-10T14:28:29.110Z,21.81
2023-05-10T14:30:56.704Z,22.61
2023-05-10T14:33:22.912Z,23.01
2023-05-10T14:35:49.185Z,22.88
2023-05-10T14:38:15.430Z,22.42
2023-05-10T14:40:41.718Z,21.86
2023-05-10T14:43:07.946Z,21.91
2023-05-10T14:45:34.269Z,21.87
2023-05-10T14:48:00.792Z,22.00
2023-05-10T14:50:36.537Z,21.84
2023-05-10T14:53:03.450Z,21.93
2023-05-10T14:55:29.656Z,21.89
2023-05-10T14:57:55.864Z,20.86
2023-05-10T15:00:22.185Z,20.83
2023-05-10T15:02:49.054Z,20.73
2023-05-10T15:05:16.005Z,20.44
2023-05-10T15:07:42.854Z,20.47
2023-05-10T15:10:09.267Z,20.49
2023-05-10T15:12:35.492Z,20.48
2023-05-10T15:15:01.717Z,20.49
2023-05-10T15:17:27.980Z,20.53
2023-05-10T15:19:54.218Z,20.55
2023-05-10T15:22:20.443Z,20.72
2023-05-10T15:24:46.666Z,20.77
2023-05-10T15:27:12.877Z,20.30
2023-05-10T15:29:39.116Z,20.43
2023-05-10T15:32:05.331Z,20.58
2023-05-10T15:34:33.164Z,20.45
2023-05-10T15:37:00.518Z,20.46
2023-05-10T15:39:26.761Z,20.23
2023-05-10T15:41:52.995Z,19.87
2023-05-10T15:44:19.195Z,20.01
2023-05-10T15:46:46.422Z,19.93
2023-05-10T15:49:12.659Z,19.93
2023-05-10T15:51:38.900Z,20.04
2023-05-10T15:54:07.479Z,19.98
2023-05-10T15:56:34.225Z,20.05
2023-05-10T15:59:00.448Z,20.09
2023-05-10T16:01:26.723Z,19.94
2023-05-10T16:03:53.058Z,19.87
2023-05-10T16:06:19.304Z,19.69
2023-05-10T16:08:45.529Z,19.62
2023-05-10T16:11:11.771Z,19.61
2023-05-10T16:13:38.015Z,19.48
2023-05-10T16:16:04.383Z,19.46
2023-05-10T16:18:30.682Z,19.29
2023-05-10T16:20:56.917Z,19.26
2023-05-10T16:23:23.138Z,19.03
2023-05-10T16:25:49.368Z,18.95
2023-05-10T16:28:17.435Z,18.75
2023-05-10T16:30:43.648Z,18.69
2023-05-10T16:33:09.942Z,18.59
2023-05-10T16:35:36.191Z,18.49
2023-05-10T16:38:02.418Z,18.47
2023-05-10T16:40:28.623Z,18.49
2023-05-10T16:42:54.830Z,18.43
2023-05-10T16:45:21.023Z,18.28
2023-05-10T16:47:47.282Z,18.32
2023-05-10T16:50:13.512Z,18.27
2023-05-10T16:52:39.973Z,18.24
2023-05-10T16:55:06.288Z,18.32
2023-05-10T16:57:32.503Z,18.30
2023-05-10T16:59:58.711Z,18.10
2023-05-10T17:02:24.980Z,18.19
2023-05-10T17:04:51.252Z,18.29
2023-05-10T17:07:17.480Z,18.15
2023-05-10T17:09:43.682Z,18.05
2023-05-10T17:12:09.936Z,17.91
2023-05-10T17:14:39.197Z,17.85
2023-05-10T17:17:05.435Z,17.72
2023-05-10T17:19:31.681Z,17.71
2023-05-10T17:21:57.911Z,17.73
2023-05-10T17:24:24.126Z,17.60
2023-05-10T17:26:50.333Z,17.58
2023-05-10T17:29:16.616Z,17.56
2023-05-10T17:31:42.939Z,17.52
2023-05-10T17:34:09.225Z,17.51
2023-05-10T17:36:35.706Z,17.53
2023-05-10T17:39:01.913Z,17.50
2023-05-10T17:41:28.130Z,17.52
2023-05-10T17:43:54.411Z,17.53
2023-05-10T17:46:20.700Z,17.46
2023-05-10T17:48:46.954Z,17.38
2023-05-10T17:51:13.174Z,17.30
2023-05-10T17:53:39.549Z,17.33
2023-05-10T17:56:05.924Z,17.26
2023-05-10T17:58:32.135Z,17.30
2023-05-10T18:00:58.392Z,17.26
2023-05-10T18:03:24.607Z,17.31
2023-05-10T18:05:50.849Z,17.34
2023-05-10T18:08:17.051Z,17.43
2023-05-10T18:10:43.267Z,17.38
2023-05-10T18:13:09.505Z,17.37
2023-05-10T18:15:35.735Z,17.29
2023-05-10T18:18:02.338Z,17.36
2023-05-10T18:20:28.596Z,17.36
2023-05-10T18:22:55.124Z,17.45
2023-05-10T18:25:21.352Z,17.57
2023-05-10T18:27:47.584Z,17.54
2023-05-10T18:30:14.009Z,17.55
2023-05-10T18:32:40.320Z,17.37
2023-05-10T18:35:06.908Z,17.43
2023-05-10T18:37:33.139Z,17.54
2023-05-10T18:39:59.388Z,17.58
2023-05-10T18:42:25.599Z,17.68
2023-05-10T18:44:51.812Z,17.70
2023-05-10T18:47:18.059Z,17.71
2023-05-10T18:49:44.281Z,17.73
2023-05-10T18:52:10.498Z,17.73
2023-05-10T18:54:36.717Z,17.69
2023-05-10T18:57:02.911Z,17.50
2023-05-10T18:59:29.119Z,17.36
2023-05-10T19:01:57.115Z,17.40
2023-05-10T19:04:23.864Z,17.43
2023-05-10T19:06:50.094Z,17.47
2023-05-10T19:09:16.320Z,17.52
2023-05-10T19:11:42.518Z,17.59
2023-05-10T19:14:08.861Z,17.59
2023-05-10T19:16:35.854Z,17.57
2023-05-10T19:19:02.431Z,17.57
2023-05-10T19:21:28.753Z,17.56
2023-05-10T19:23:58.320Z,17.56
2023-05-10T19:26:24.647Z,17.50
2023-05-10T19:28:51.249Z,17.47
2023-05-10T19:31:17.539Z,17.43
2023-05-10T19:33:43.864Z,17.36
2023-05-10T19:36:10.129Z,17.33
2023-05-10T19:38:36.772Z,17.28
2023-05-10T19:41:03.088Z,17.27
2023-05-10T19:43:33.336Z,17.26
2023-05-10T19:46:00.694Z,17.31
2023-05-10T19:48:26.975Z,17.17
2023-05-10T19:50:53.335Z,17.14
2023-05-10T19:53:19.550Z,17.20
2023-05-10T19:55:45.759Z,17.25
2023-05-10T19:58:11.958Z,17.23
2023-05-10T20:00:38.255Z,17.19
2023-05-10T20:03:04.888Z,17.18
2023-05-10T20:05:32.125Z,17.22
2023-05-10T20:07:58.325Z,17.29
2023-05-10T20:10:26.901Z,17.21
2023-05-10T20:12:53.403Z,17.18
2023-05-10T20:15:22.645Z,17.12
2023-05-10T20:17:49.215Z,17.11
2023-05-10T20:20:15.649Z,17.10
2023-05-10T20:22:42.788Z,17.08
2023-05-10T20:25:09.131Z,17.08
2023-05-10T20:27:35.335Z,16.91
2023-05-10T20:30:01.557Z,16.92
2023-05-10T20:32:27.795Z,16.87
2023-05-10T20:34:54.017Z,16.85
2023-05-10T20:37:20.227Z,16.84
2023-05-10T20:39:47.931Z,16.84
2023-05-10T20:42:19.055Z,16.87
2023-05-10T20:44:45.276Z,16.88
2023-05-10T20:47:11.515Z,16.59
2023-05-10T20:49:37.836Z,16.61
2023-05-10T20:52:04.496Z,16.63
2023-05-10T20:54:30.719Z,16.63
2023-05-10T20:56:56.956Z,16.60
2023-05-10T20:59:23.161Z,16.57
2023-05-10T21:01:49.438Z,16.58
2023-05-10T21:04:15.666Z,16.53
2023-05-10T21:06:42.624Z,16.54
2023-05-10T21:09:08.824Z,16.50
2023-05-10T21:11:36.157Z,16.51
2023-05-10T21:14:02.472Z,16.53
2023-05-10T21:16:28.757Z,16.54
2023-05-10T21:18:55.038Z,16.50
2023-05-10T21:21:21.267Z,16.45
2023-05-10T21:23:47.464Z,16.39
2023-05-10T21:26:13.688Z,16.37
2023-05-10T21:28:40.216Z,16.38
2023-05-10T21:31:06.809Z,16.35
2023-05-10T21:33:33.019Z,16.33
2023-05-10T21:35:59.318Z,16.32
2023-05-10T21:38:27.028Z,16.30
2023-05-10T21:40:53.249Z,16.30
2023-05-10T21:43:19.455Z,16.35
2023-05-10T21:45:45.683Z,16.10
2023-05-10T21:48:12.023Z,15.89
2023-05-10T21:50:38.252Z,15.96
2023-05-10T21:53:04.481Z,15.99
2023-05-10T21:55:30.695Z,16.00
2023-05-10T21:57:57.366Z,15.99
2023-05-10T22:00:23.582Z,15.99
2023-05-10T22:02:49.911Z,15.96
2023-05-10T22:05:16.277Z,16.11
2023-05-10T22:07:42.492Z,16.16
2023-05-10T22:10:08.834Z,16.15
2023-05-10T22:12:35.072Z,16.15
2023-05-10T22:15:10.174Z,15.77
2023-05-10T22:17:37.940Z,15.89
2023-05-10T22:20:04.625Z,16.06
2023-05-10T22:22:30.837Z,16.09
2023-05-10T22:24:57.067Z,16.06
2023-05-10T22:27:23.341Z,15.99
2023-05-10T22:29:49.559Z,16.00
2023-05-10T22:32:15.779Z,15.99
2023-05-10T22:34:41.978Z,15.95
2023-05-10T22:37:08.240Z,15.94
2023-05-10T22:39:34.487Z,15.92
2023-05-10T22:42:00.706Z,15.90
2023-05-10T22:44:26.924Z,15.90
2023-05-10T22:46:53.271Z,15.88
2023-05-10T22:49:19.507Z,15.85
2023-05-10T22:51:45.805Z,15.82
2023-05-10T22:54:12.044Z,15.79
2023-05-10T22:56:38.279Z,15.77
2023-05-10T22:59:04.500Z,15.73
2023-05-10T23:01:30.812Z,15.69
2023-05-10T23:03:57.050Z,15.75
2023-05-10T23:06:23.268Z,15.73
2023-05-10T23:08:49.506Z,15.67
2023-05-10T23:11:15.736Z,15.62
2023-05-10T23:13:41.970Z,15.54
2023-05-10T23:16:08.248Z,15.50
2023-05-10T23:18:34.543Z,15.46
2023-05-10T23:21:00.760Z,15.41
2023-05-10T23:23:27.002Z,15.38
2023-05-10T23:25:53.229Z,15.35
2023-05-10T23:28:19.438Z,15.33
2023-05-10T23:30:45.646Z,15.32
2023-05-10T23:33:11.935Z,15.34
2023-05-10T23:35:38.177Z,15.36
2023-05-10T23:38:04.524Z,15.35
2023-05-10T23:40:30.746Z,15.36
2023-05-10T23:42:56.971Z,15.39
2023-05-10T23:45:23.195Z,15.36
2023-05-10T23:47:49.494Z,15.27
2023-05-10T23:50:15.867Z,15.34
2023-05-10T23:52:42.152Z,15.27
2023-05-10T23:55:08.539Z,15.25
2023-05-10T23:57:34.782Z,15.25
